sensor_id;sensor_type;location;lat;lon;timestamp;P1;durP1;ratioP1;P2;durP2;ratioP2
65855;SDS011;52631;42.208;24.656;2023-07-31T00:01:30;3.30;;;1.60;;
65855;SDS011;52631;42.208;24.656;2023-07-31T00:03:56;2.95;;;1.50;;
65855;SDS011;52631;42.208;24.656;2023-07-31T00:06:21;2.65;;;1.30;;
65855;SDS011;52631;42.208;24.656;2023-07-31T00:08:47;3.55;;;1.40;;
65855;SDS011;52631;42.208;24.656;2023-07-31T00:11:13;4.22;;;1.50;;
65855;SDS011;52631;42.208;24.656;2023-07-31T00:13:38;6.22;;;1.52;;
65855;SDS011;52631;42.208;24.656;2023-07-31T00:16:03;4.57;;;1.40;;
65855;SDS011;52631;42.208;24.656;2023-07-31T00:18:29;4.60;;;1.70;;
65855;SDS011;52631;42.208;24.656;2023-07-31T00:20:54;4.93;;;1.52;;
65855;SDS011;52631;42.208;24.656;2023-07-31T00:23:20;4.45;;;1.65;;
65855;SDS011;52631;42.208;24.656;2023-07-31T00:25:45;3.53;;;1.25;;
65855;SDS011;52631;42.208;24.656;2023-07-31T00:28:11;6.18;;;1.67;;
65855;SDS011;52631;42.208;24.656;2023-07-31T00:30:36;7.32;;;1.77;;
65855;SDS011;52631;42.208;24.656;2023-07-31T00:33:02;4.95;;;1.40;;
65855;SDS011;52631;42.208;24.656;2023-07-31T00:35:28;6.75;;;1.50;;
65855;SDS011;52631;42.208;24.656;2023-07-31T00:37:53;3.28;;;1.67;;
65855;SDS011;52631;42.208;24.656;2023-07-31T00:40:19;4.55;;;1.60;;
65855;SDS011;52631;42.208;24.656;2023-07-31T00:42:44;5.47;;;1.98;;
65855;SDS011;52631;42.208;24.656;2023-07-31T00:45:10;6.05;;;1.70;;
65855;SDS011;52631;42.208;24.656;2023-07-31T00:47:36;4.13;;;1.50;;
65855;SDS011;52631;42.208;24.656;2023-07-31T00:50:01;4.00;;;1.63;;
65855;SDS011;52631;42.208;24.656;2023-07-31T00:52:26;3.35;;;1.60;;
65855;SDS011;52631;42.208;24.656;2023-07-31T00:54:52;3.72;;;1.55;;
65855;SDS011;52631;42.208;24.656;2023-07-31T00:57:18;3.90;;;1.80;;
65855;SDS011;52631;42.208;24.656;2023-07-31T00:59:43;3.50;;;1.90;;
65855;SDS011;52631;42.208;24.656;2023-07-31T01:02:11;4.63;;;1.90;;
65855;SDS011;52631;42.208;24.656;2023-07-31T01:04:37;4.57;;;1.83;;
65855;SDS011;52631;42.208;24.656;2023-07-31T01:07:11;5.22;;;1.63;;
65855;SDS011;52631;42.208;24.656;2023-07-31T01:09:45;5.40;;;1.92;;
65855;SDS011;52631;42.208;24.656;2023-07-31T01:12:15;3.95;;;1.95;;
65855;SDS011;52631;42.208;24.656;2023-07-31T01:15:03;4.35;;;1.83;;
65855;SDS011;52631;42.208;24.656;2023-07-31T01:17:28;4.85;;;2.00;;
65855;SDS011;52631;42.208;24.656;2023-07-31T01:19:55;3.72;;;1.88;;
65855;SDS011;52631;42.208;24.656;2023-07-31T01:22:30;5.78;;;2.20;;
65855;SDS011;52631;42.208;24.656;2023-07-31T01:27:34;4.32;;;1.80;;
65855;SDS011;52631;42.208;24.656;2023-07-31T01:31:01;5.78;;;1.80;;
65855;SDS011;52631;42.208;24.656;2023-07-31T01:33:00;5.22;;;1.67;;
65855;SDS011;52631;42.208;24.656;2023-07-31T01:35:31;4.68;;;1.85;;
65855;SDS011;52631;42.208;24.656;2023-07-31T01:37:57;5.15;;;1.85;;
65855;SDS011;52631;42.208;24.656;2023-07-31T01:40:23;6.60;;;2.03;;
65855;SDS011;52631;42.208;24.656;2023-07-31T01:42:49;4.32;;;1.60;;
65855;SDS011;52631;42.208;24.656;2023-07-31T01:45:14;4.10;;;1.70;;
65855;SDS011;52631;42.208;24.656;2023-07-31T01:47:40;3.10;;;1.73;;
65855;SDS011;52631;42.208;24.656;2023-07-31T01:50:05;3.10;;;1.67;;
65855;SDS011;52631;42.208;24.656;2023-07-31T01:52:31;4.50;;;2.03;;
65855;SDS011;52631;42.208;24.656;2023-07-31T01:54:56;5.50;;;1.60;;
65855;SDS011;52631;42.208;24.656;2023-07-31T01:57:22;4.80;;;1.75;;
65855;SDS011;52631;42.208;24.656;2023-07-31T01:59:48;5.43;;;1.90;;
65855;SDS011;52631;42.208;24.656;2023-07-31T02:02:13;4.18;;;1.40;;
65855;SDS011;52631;42.208;24.656;2023-07-31T02:04:39;4.38;;;1.40;;
65855;SDS011;52631;42.208;24.656;2023-07-31T02:07:05;4.70;;;1.70;;
65855;SDS011;52631;42.208;24.656;2023-07-31T02:09:31;3.72;;;1.80;;
65855;SDS011;52631;42.208;24.656;2023-07-31T02:11:57;5.32;;;2.20;;
65855;SDS011;52631;42.208;24.656;2023-07-31T02:14:22;3.88;;;1.80;;
65855;SDS011;52631;42.208;24.656;2023-07-31T02:16:47;3.33;;;1.88;;
65855;SDS011;52631;42.208;24.656;2023-07-31T02:19:13;3.55;;;2.00;;
65855;SDS011;52631;42.208;24.656;2023-07-31T02:21:38;5.60;;;2.40;;
65855;SDS011;52631;42.208;24.656;2023-07-31T02:24:04;5.43;;;2.53;;
65855;SDS011;52631;42.208;24.656;2023-07-31T02:26:29;6.07;;;2.33;;
65855;SDS011;52631;42.208;24.656;2023-07-31T02:28:55;3.90;;;2.10;;
65855;SDS011;52631;42.208;24.656;2023-07-31T02:31:20;5.15;;;2.45;;
65855;SDS011;52631;42.208;24.656;2023-07-31T02:33:46;8.15;;;3.13;;
65855;SDS011;52631;42.208;24.656;2023-07-31T02:36:11;7.18;;;3.58;;
65855;SDS011;52631;42.208;24.656;2023-07-31T02:38:37;4.90;;;3.03;;
65855;SDS011;52631;42.208;24.656;2023-07-31T02:41:02;6.60;;;3.30;;
65855;SDS011;52631;42.208;24.656;2023-07-31T02:43:28;6.53;;;3.75;;
65855;SDS011;52631;42.208;24.656;2023-07-31T02:45:53;5.38;;;3.28;;
65855;SDS011;52631;42.208;24.656;2023-07-31T02:48:19;6.97;;;3.45;;
65855;SDS011;52631;42.208;24.656;2023-07-31T02:50:45;5.78;;;3.30;;
65855;SDS011;52631;42.208;24.656;2023-07-31T02:53:10;5.97;;;4.10;;
65855;SDS011;52631;42.208;24.656;2023-07-31T02:55:36;10.00;;;4.03;;
65855;SDS011;52631;42.208;24.656;2023-07-31T02:58:02;6.53;;;3.55;;
65855;SDS011;52631;42.208;24.656;2023-07-31T03:00:27;7.85;;;3.70;;
65855;SDS011;52631;42.208;24.656;2023-07-31T03:02:53;6.03;;;3.35;;
65855;SDS011;52631;42.208;24.656;2023-07-31T03:05:18;8.48;;;4.63;;
65855;SDS011;52631;42.208;24.656;2023-07-31T03:07:44;9.95;;;4.63;;
65855;SDS011;52631;42.208;24.656;2023-07-31T03:10:09;8.68;;;5.72;;
65855;SDS011;52631;42.208;24.656;2023-07-31T03:12:35;9.50;;;5.40;;
65855;SDS011;52631;42.208;24.656;2023-07-31T03:15:00;6.97;;;5.50;;
65855;SDS011;52631;42.208;24.656;2023-07-31T03:17:26;7.63;;;5.60;;
65855;SDS011;52631;42.208;24.656;2023-07-31T03:19:51;8.85;;;6.10;;
65855;SDS011;52631;42.208;24.656;2023-07-31T03:22:16;10.27;;;6.18;;
65855;SDS011;52631;42.208;24.656;2023-07-31T03:24:42;8.85;;;6.38;;
65855;SDS011;52631;42.208;24.656;2023-07-31T03:27:07;8.68;;;6.32;;
65855;SDS011;52631;42.208;24.656;2023-07-31T03:29:33;9.60;;;6.30;;
65855;SDS011;52631;42.208;24.656;2023-07-31T03:31:59;9.52;;;6.47;;
65855;SDS011;52631;42.208;24.656;2023-07-31T03:34:24;8.18;;;6.35;;
65855;SDS011;52631;42.208;24.656;2023-07-31T03:36:49;8.90;;;6.55;;
65855;SDS011;52631;42.208;24.656;2023-07-31T03:39:15;10.23;;;7.00;;
65855;SDS011;52631;42.208;24.656;2023-07-31T03:41:41;10.18;;;6.72;;
65855;SDS011;52631;42.208;24.656;2023-07-31T03:44:06;10.30;;;6.90;;
65855;SDS011;52631;42.208;24.656;2023-07-31T03:46:32;9.52;;;6.60;;
65855;SDS011;52631;42.208;24.656;2023-07-31T03:48:58;9.35;;;6.45;;
65855;SDS011;52631;42.208;24.656;2023-07-31T03:51:24;9.73;;;6.35;;
65855;SDS011;52631;42.208;24.656;2023-07-31T03:53:50;9.77;;;6.32;;
65855;SDS011;52631;42.208;24.656;2023-07-31T03:56:15;11.18;;;6.45;;
65855;SDS011;52631;42.208;24.656;2023-07-31T03:58:41;9.70;;;6.18;;
65855;SDS011;52631;42.208;24.656;2023-07-31T04:01:06;9.63;;;7.00;;
65855;SDS011;52631;42.208;24.656;2023-07-31T04:03:31;8.75;;;6.35;;
65855;SDS011;52631;42.208;24.656;2023-07-31T04:05:57;9.27;;;6.07;;
65855;SDS011;52631;42.208;24.656;2023-07-31T04:08:23;8.70;;;6.63;;
65855;SDS011;52631;42.208;24.656;2023-07-31T04:10:48;9.00;;;6.75;;
65855;SDS011;52631;42.208;24.656;2023-07-31T04:13:14;9.10;;;6.40;;
65855;SDS011;52631;42.208;24.656;2023-07-31T04:15:40;8.77;;;6.20;;
65855;SDS011;52631;42.208;24.656;2023-07-31T04:18:05;8.40;;;6.43;;
65855;SDS011;52631;42.208;24.656;2023-07-31T04:20:31;8.27;;;5.90;;
65855;SDS011;52631;42.208;24.656;2023-07-31T04:22:56;7.60;;;5.90;;
65855;SDS011;52631;42.208;24.656;2023-07-31T04:25:22;7.95;;;6.43;;
65855;SDS011;52631;42.208;24.656;2023-07-31T04:27:47;9.90;;;6.80;;
65855;SDS011;52631;42.208;24.656;2023-07-31T04:30:13;8.27;;;5.85;;
65855;SDS011;52631;42.208;24.656;2023-07-31T04:32:39;9.35;;;6.05;;
65855;SDS011;52631;42.208;24.656;2023-07-31T04:35:04;9.25;;;6.38;;
65855;SDS011;52631;42.208;24.656;2023-07-31T04:37:30;7.60;;;5.75;;
65855;SDS011;52631;42.208;24.656;2023-07-31T04:39:55;9.00;;;6.18;;
65855;SDS011;52631;42.208;24.656;2023-07-31T04:42:21;8.45;;;6.25;;
65855;SDS011;52631;42.208;24.656;2023-07-31T04:44:46;7.32;;;5.55;;
65855;SDS011;52631;42.208;24.656;2023-07-31T04:47:12;7.25;;;5.82;;
65855;SDS011;52631;42.208;24.656;2023-07-31T04:49:37;8.52;;;5.75;;
65855;SDS011;52631;42.208;24.656;2023-07-31T04:52:03;9.45;;;5.85;;
65855;SDS011;52631;42.208;24.656;2023-07-31T04:54:29;7.47;;;5.78;;
65855;SDS011;52631;42.208;24.656;2023-07-31T04:56:54;7.47;;;5.70;;
65855;SDS011;52631;42.208;24.656;2023-07-31T04:59:20;7.57;;;5.90;;
65855;SDS011;52631;42.208;24.656;2023-07-31T05:01:45;6.20;;;5.30;;
65855;SDS011;52631;42.208;24.656;2023-07-31T05:04:14;8.93;;;5.70;;
65855;SDS011;52631;42.208;24.656;2023-07-31T05:06:40;8.15;;;5.63;;
65855;SDS011;52631;42.208;24.656;2023-07-31T05:09:06;8.80;;;5.65;;
65855;SDS011;52631;42.208;24.656;2023-07-31T05:11:31;7.07;;;5.22;;
65855;SDS011;52631;42.208;24.656;2023-07-31T05:13:57;8.68;;;5.32;;
65855;SDS011;52631;42.208;24.656;2023-07-31T05:16:22;7.93;;;5.00;;
65855;SDS011;52631;42.208;24.656;2023-07-31T05:18:48;6.95;;;5.57;;
65855;SDS011;52631;42.208;24.656;2023-07-31T05:21:13;10.43;;;5.50;;
65855;SDS011;52631;42.208;24.656;2023-07-31T05:23:38;9.18;;;5.55;;
65855;SDS011;52631;42.208;24.656;2023-07-31T05:26:07;6.50;;;5.30;;
65855;SDS011;52631;42.208;24.656;2023-07-31T05:28:34;8.00;;;5.53;;
65855;SDS011;52631;42.208;24.656;2023-07-31T05:31:01;11.07;;;5.75;;
65855;SDS011;52631;42.208;24.656;2023-07-31T05:33:29;10.25;;;6.10;;
65855;SDS011;52631;42.208;24.656;2023-07-31T05:35:55;8.50;;;5.85;;
65855;SDS011;52631;42.208;24.656;2023-07-31T05:38:21;10.60;;;6.55;;
65855;SDS011;52631;42.208;24.656;2023-07-31T05:40:46;9.52;;;6.78;;
65855;SDS011;52631;42.208;24.656;2023-07-31T05:43:12;10.35;;;6.80;;
65855;SDS011;52631;42.208;24.656;2023-07-31T05:45:38;9.85;;;6.80;;
65855;SDS011;52631;42.208;24.656;2023-07-31T05:48:05;9.68;;;6.38;;
65855;SDS011;52631;42.208;24.656;2023-07-31T05:50:31;7.82;;;5.78;;
65855;SDS011;52631;42.208;24.656;2023-07-31T05:52:56;8.45;;;6.32;;
65855;SDS011;52631;42.208;24.656;2023-07-31T05:55:22;9.65;;;7.22;;
65855;SDS011;52631;42.208;24.656;2023-07-31T05:57:48;10.75;;;6.57;;
65855;SDS011;52631;42.208;24.656;2023-07-31T06:00:14;11.60;;;7.43;;
65855;SDS011;52631;42.208;24.656;2023-07-31T06:02:40;9.40;;;6.95;;
65855;SDS011;52631;42.208;24.656;2023-07-31T06:05:05;9.13;;;7.25;;
65855;SDS011;52631;42.208;24.656;2023-07-31T06:07:31;11.50;;;7.50;;
65855;SDS011;52631;42.208;24.656;2023-07-31T06:09:57;9.18;;;7.22;;
65855;SDS011;52631;42.208;24.656;2023-07-31T06:12:28;10.68;;;7.55;;
65855;SDS011;52631;42.208;24.656;2023-07-31T06:14:53;10.57;;;7.28;;
65855;SDS011;52631;42.208;24.656;2023-07-31T06:17:19;10.63;;;7.53;;
65855;SDS011;52631;42.208;24.656;2023-07-31T06:19:44;10.57;;;7.30;;
65855;SDS011;52631;42.208;24.656;2023-07-31T06:22:10;11.05;;;8.18;;
65855;SDS011;52631;42.208;24.656;2023-07-31T06:24:35;9.40;;;7.50;;
65855;SDS011;52631;42.208;24.656;2023-07-31T06:27:01;11.07;;;7.78;;
65855;SDS011;52631;42.208;24.656;2023-07-31T06:29:28;12.52;;;7.60;;
65855;SDS011;52631;42.208;24.656;2023-07-31T06:31:54;11.80;;;8.18;;
65855;SDS011;52631;42.208;24.656;2023-07-31T06:34:20;15.23;;;7.65;;
65855;SDS011;52631;42.208;24.656;2023-07-31T06:36:45;11.30;;;7.63;;
65855;SDS011;52631;42.208;24.656;2023-07-31T06:39:10;9.75;;;7.72;;
65855;SDS011;52631;42.208;24.656;2023-07-31T06:41:36;11.50;;;8.20;;
65855;SDS011;52631;42.208;24.656;2023-07-31T06:44:01;11.60;;;8.38;;
65855;SDS011;52631;42.208;24.656;2023-07-31T06:46:27;10.98;;;8.77;;
65855;SDS011;52631;42.208;24.656;2023-07-31T06:48:52;10.65;;;8.43;;
65855;SDS011;52631;42.208;24.656;2023-07-31T06:51:18;12.45;;;8.55;;
65855;SDS011;52631;42.208;24.656;2023-07-31T06:53:43;11.10;;;8.18;;
65855;SDS011;52631;42.208;24.656;2023-07-31T06:56:10;10.63;;;8.88;;
65855;SDS011;52631;42.208;24.656;2023-07-31T06:58:35;10.48;;;8.82;;
65855;SDS011;52631;42.208;24.656;2023-07-31T07:01:01;11.35;;;8.65;;
65855;SDS011;52631;42.208;24.656;2023-07-31T07:03:27;12.45;;;7.97;;
65855;SDS011;52631;42.208;24.656;2023-07-31T07:05:52;12.50;;;7.97;;
65855;SDS011;52631;42.208;24.656;2023-07-31T07:08:17;13.50;;;7.47;;
65855;SDS011;52631;42.208;24.656;2023-07-31T07:10:43;9.60;;;7.05;;
65855;SDS011;52631;42.208;24.656;2023-07-31T07:13:08;8.07;;;7.03;;
65855;SDS011;52631;42.208;24.656;2023-07-31T07:15:34;9.02;;;7.40;;
65855;SDS011;52631;42.208;24.656;2023-07-31T07:18:00;9.65;;;7.32;;
65855;SDS011;52631;42.208;24.656;2023-07-31T07:20:25;9.23;;;7.80;;
65855;SDS011;52631;42.208;24.656;2023-07-31T07:22:51;8.98;;;7.28;;
65855;SDS011;52631;42.208;24.656;2023-07-31T07:25:17;11.13;;;7.78;;
65855;SDS011;52631;42.208;24.656;2023-07-31T07:27:42;10.05;;;7.65;;
65855;SDS011;52631;42.208;24.656;2023-07-31T07:30:07;10.48;;;7.68;;
65855;SDS011;52631;42.208;24.656;2023-07-31T07:32:34;9.05;;;7.38;;
65855;SDS011;52631;42.208;24.656;2023-07-31T07:34:59;10.95;;;7.82;;
65855;SDS011;52631;42.208;24.656;2023-07-31T07:37:25;9.13;;;7.65;;
65855;SDS011;52631;42.208;24.656;2023-07-31T07:39:50;10.00;;;7.55;;
65855;SDS011;52631;42.208;24.656;2023-07-31T07:42:15;9.73;;;8.02;;
65855;SDS011;52631;42.208;24.656;2023-07-31T07:44:41;9.95;;;7.68;;
65855;SDS011;52631;42.208;24.656;2023-07-31T07:47:07;9.57;;;8.02;;
65855;SDS011;52631;42.208;24.656;2023-07-31T07:49:33;8.82;;;7.35;;
65855;SDS011;52631;42.208;24.656;2023-07-31T07:51:59;10.13;;;7.75;;
65855;SDS011;52631;42.208;24.656;2023-07-31T07:54:25;8.93;;;7.30;;
65855;SDS011;52631;42.208;24.656;2023-07-31T07:56:50;9.80;;;7.18;;
65855;SDS011;52631;42.208;24.656;2023-07-31T07:59:16;9.93;;;6.93;;
65855;SDS011;52631;42.208;24.656;2023-07-31T08:01:42;8.02;;;6.88;;
65855;SDS011;52631;42.208;24.656;2023-07-31T08:04:08;12.50;;;8.13;;
65855;SDS011;52631;42.208;24.656;2023-07-31T08:06:33;10.32;;;8.45;;
65855;SDS011;52631;42.208;24.656;2023-07-31T08:08:59;11.57;;;8.82;;
65855;SDS011;52631;42.208;24.656;2023-07-31T08:11:24;11.82;;;8.52;;
65855;SDS011;52631;42.208;24.656;2023-07-31T08:13:50;15.50;;;10.57;;
65855;SDS011;52631;42.208;24.656;2023-07-31T08:16:16;11.90;;;9.43;;
65855;SDS011;52631;42.208;24.656;2023-07-31T08:18:41;11.20;;;9.25;;
65855;SDS011;52631;42.208;24.656;2023-07-31T08:21:08;14.05;;;11.25;;
65855;SDS011;52631;42.208;24.656;2023-07-31T08:23:33;13.05;;;10.60;;
65855;SDS011;52631;42.208;24.656;2023-07-31T08:25:59;16.10;;;10.70;;
65855;SDS011;52631;42.208;24.656;2023-07-31T08:28:24;11.77;;;9.70;;
65855;SDS011;52631;42.208;24.656;2023-07-31T08:30:50;12.05;;;9.68;;
65855;SDS011;52631;42.208;24.656;2023-07-31T08:33:15;12.45;;;10.02;;
65855;SDS011;52631;42.208;24.656;2023-07-31T08:35:41;11.82;;;9.50;;
65855;SDS011;52631;42.208;24.656;2023-07-31T08:38:06;12.88;;;9.82;;
65855;SDS011;52631;42.208;24.656;2023-07-31T08:40:32;11.50;;;9.70;;
65855;SDS011;52631;42.208;24.656;2023-07-31T08:43:01;12.00;;;9.38;;
65855;SDS011;52631;42.208;24.656;2023-07-31T08:45:27;12.13;;;9.88;;
65855;SDS011;52631;42.208;24.656;2023-07-31T08:47:53;14.02;;;10.38;;
65855;SDS011;52631;42.208;24.656;2023-07-31T08:50:19;14.38;;;10.60;;
65855;SDS011;52631;42.208;24.656;2023-07-31T08:52:45;13.45;;;10.32;;
65855;SDS011;52631;42.208;24.656;2023-07-31T08:55:11;14.65;;;10.57;;
65855;SDS011;52631;42.208;24.656;2023-07-31T08:57:37;13.15;;;10.40;;
65855;SDS011;52631;42.208;24.656;2023-07-31T09:00:04;13.55;;;10.70;;
65855;SDS011;52631;42.208;24.656;2023-07-31T09:05:11;13.35;;;10.18;;
65855;SDS011;52631;42.208;24.656;2023-07-31T09:07:37;12.23;;;10.48;;
65855;SDS011;52631;42.208;24.656;2023-07-31T09:10:04;13.93;;;9.82;;
65855;SDS011;52631;42.208;24.656;2023-07-31T09:12:30;18.83;;;10.88;;
65855;SDS011;52631;42.208;24.656;2023-07-31T09:14:59;11.60;;;10.07;;
65855;SDS011;52631;42.208;24.656;2023-07-31T09:37:40;13.18;;;9.52;;
65855;SDS011;52631;42.208;24.656;2023-07-31T09:40:05;11.18;;;9.57;;
65855;SDS011;52631;42.208;24.656;2023-07-31T09:42:31;13.00;;;9.35;;
65855;SDS011;52631;42.208;24.656;2023-07-31T09:45:06;10.05;;;8.65;;
65855;SDS011;52631;42.208;24.656;2023-07-31T09:47:33;10.10;;;7.90;;
65855;SDS011;52631;42.208;24.656;2023-07-31T09:49:59;10.80;;;8.55;;
65855;SDS011;52631;42.208;24.656;2023-07-31T09:52:25;10.48;;;8.48;;
65855;SDS011;52631;42.208;24.656;2023-07-31T09:54:51;10.75;;;8.30;;
65855;SDS011;52631;42.208;24.656;2023-07-31T09:57:16;10.23;;;8.20;;
65855;SDS011;52631;42.208;24.656;2023-07-31T09:59:42;11.63;;;9.13;;
65855;SDS011;52631;42.208;24.656;2023-07-31T10:02:08;8.82;;;7.20;;
65855;SDS011;52631;42.208;24.656;2023-07-31T10:04:38;8.95;;;7.45;;
65855;SDS011;52631;42.208;24.656;2023-07-31T10:07:03;10.45;;;7.57;;
65855;SDS011;52631;42.208;24.656;2023-07-31T10:09:29;12.93;;;6.60;;
65855;SDS011;52631;42.208;24.656;2023-07-31T10:11:59;8.13;;;5.85;;
65855;SDS011;52631;42.208;24.656;2023-07-31T10:14:25;7.53;;;6.47;;
65855;SDS011;52631;42.208;24.656;2023-07-31T10:16:51;9.38;;;6.72;;
65855;SDS011;52631;42.208;24.656;2023-07-31T10:19:18;10.43;;;7.03;;
65855;SDS011;52631;42.208;24.656;2023-07-31T10:21:44;8.13;;;6.68;;
65855;SDS011;52631;42.208;24.656;2023-07-31T10:24:10;8.40;;;7.05;;
65855;SDS011;52631;42.208;24.656;2023-07-31T10:26:37;9.57;;;6.85;;
65855;SDS011;52631;42.208;24.656;2023-07-31T10:29:04;7.95;;;6.88;;
65855;SDS011;52631;42.208;24.656;2023-07-31T10:31:30;8.00;;;6.82;;
65855;SDS011;52631;42.208;24.656;2023-07-31T10:33:57;8.40;;;6.95;;
65855;SDS011;52631;42.208;24.656;2023-07-31T10:36:24;8.90;;;6.60;;
65855;SDS011;52631;42.208;24.656;2023-07-31T10:38:49;9.75;;;6.38;;
65855;SDS011;52631;42.208;24.656;2023-07-31T10:41:16;8.02;;;6.40;;
65855;SDS011;52631;42.208;24.656;2023-07-31T10:43:41;7.15;;;6.13;;
65855;SDS011;52631;42.208;24.656;2023-07-31T10:46:07;7.47;;;6.18;;
65855;SDS011;52631;42.208;24.656;2023-07-31T10:48:34;8.38;;;6.40;;
65855;SDS011;52631;42.208;24.656;2023-07-31T10:51:01;10.30;;;6.65;;
65855;SDS011;52631;42.208;24.656;2023-07-31T10:53:35;9.18;;;6.35;;
65855;SDS011;52631;42.208;24.656;2023-07-31T10:56:04;8.55;;;6.65;;
65855;SDS011;52631;42.208;24.656;2023-07-31T10:58:32;11.07;;;8.23;;
65855;SDS011;52631;42.208;24.656;2023-07-31T11:00:58;10.57;;;6.55;;
65855;SDS011;52631;42.208;24.656;2023-07-31T11:03:26;13.35;;;6.72;;
65855;SDS011;52631;42.208;24.656;2023-07-31T11:06:06;17.08;;;6.43;;
65855;SDS011;52631;42.208;24.656;2023-07-31T11:08:33;10.35;;;6.05;;
65855;SDS011;52631;42.208;24.656;2023-07-31T11:16:14;7.70;;;6.38;;
65855;SDS011;52631;42.208;24.656;2023-07-31T11:18:40;12.48;;;6.70;;
65855;SDS011;52631;42.208;24.656;2023-07-31T11:21:07;8.70;;;6.00;;
65855;SDS011;52631;42.208;24.656;2023-07-31T11:23:36;7.68;;;6.25;;
65855;SDS011;52631;42.208;24.656;2023-07-31T11:26:02;11.18;;;6.20;;
65855;SDS011;52631;42.208;24.656;2023-07-31T11:28:30;6.75;;;6.05;;
65855;SDS011;52631;42.208;24.656;2023-07-31T11:31:00;8.20;;;6.05;;
65855;SDS011;52631;42.208;24.656;2023-07-31T11:33:26;8.73;;;6.40;;
65855;SDS011;52631;42.208;24.656;2023-07-31T11:35:51;9.07;;;6.60;;
65855;SDS011;52631;42.208;24.656;2023-07-31T11:38:32;8.43;;;6.10;;
65855;SDS011;52631;42.208;24.656;2023-07-31T11:41:00;8.60;;;6.03;;
65855;SDS011;52631;42.208;24.656;2023-07-31T11:43:32;10.57;;;6.50;;
65855;SDS011;52631;42.208;24.656;2023-07-31T11:45:59;7.97;;;6.07;;
65855;SDS011;52631;42.208;24.656;2023-07-31T11:48:31;7.32;;;6.20;;
65855;SDS011;52631;42.208;24.656;2023-07-31T11:51:06;7.60;;;6.00;;
65855;SDS011;52631;42.208;24.656;2023-07-31T11:53:37;9.43;;;6.50;;
65855;SDS011;52631;42.208;24.656;2023-07-31T11:56:20;7.70;;;6.28;;
65855;SDS011;52631;42.208;24.656;2023-07-31T11:58:47;8.13;;;6.18;;
65855;SDS011;52631;42.208;24.656;2023-07-31T12:01:20;9.93;;;5.93;;
65855;SDS011;52631;42.208;24.656;2023-07-31T12:03:46;6.50;;;4.45;;
65855;SDS011;52631;42.208;24.656;2023-07-31T12:06:12;6.80;;;4.65;;
65855;SDS011;52631;42.208;24.656;2023-07-31T12:08:38;5.88;;;4.50;;
65855;SDS011;52631;42.208;24.656;2023-07-31T12:11:04;6.20;;;5.05;;
65855;SDS011;52631;42.208;24.656;2023-07-31T12:13:30;6.00;;;4.57;;
65855;SDS011;52631;42.208;24.656;2023-07-31T12:15:57;6.18;;;4.45;;
65855;SDS011;52631;42.208;24.656;2023-07-31T12:18:26;5.45;;;4.80;;
65855;SDS011;52631;42.208;24.656;2023-07-31T12:23:28;7.03;;;4.90;;
65855;SDS011;52631;42.208;24.656;2023-07-31T12:26:01;7.85;;;5.18;;
65855;SDS011;52631;42.208;24.656;2023-07-31T12:28:37;7.53;;;4.85;;
65855;SDS011;52631;42.208;24.656;2023-07-31T12:31:10;5.70;;;4.80;;
65855;SDS011;52631;42.208;24.656;2023-07-31T12:33:37;6.78;;;4.85;;
65855;SDS011;52631;42.208;24.656;2023-07-31T12:36:06;5.50;;;4.63;;
65855;SDS011;52631;42.208;24.656;2023-07-31T12:38:33;6.00;;;4.47;;
65855;SDS011;52631;42.208;24.656;2023-07-31T12:40:58;5.55;;;4.43;;
65855;SDS011;52631;42.208;24.656;2023-07-31T12:43:24;5.50;;;4.38;;
65855;SDS011;52631;42.208;24.656;2023-07-31T12:45:49;9.40;;;4.82;;
65855;SDS011;52631;42.208;24.656;2023-07-31T12:48:15;5.07;;;3.88;;
65855;SDS011;52631;42.208;24.656;2023-07-31T12:50:40;6.35;;;4.07;;
65855;SDS011;52631;42.208;24.656;2023-07-31T12:53:06;5.38;;;3.92;;
65855;SDS011;52631;42.208;24.656;2023-07-31T12:55:32;6.72;;;4.63;;
65855;SDS011;52631;42.208;24.656;2023-07-31T12:58:01;6.15;;;4.03;;
65855;SDS011;52631;42.208;24.656;2023-07-31T13:00:27;9.48;;;4.40;;
65855;SDS011;52631;42.208;24.656;2023-07-31T13:02:53;5.40;;;4.00;;
65855;SDS011;52631;42.208;24.656;2023-07-31T13:05:18;9.40;;;4.55;;
65855;SDS011;52631;42.208;24.656;2023-07-31T13:07:45;6.38;;;4.10;;
65855;SDS011;52631;42.208;24.656;2023-07-31T13:10:11;7.78;;;4.30;;
65855;SDS011;52631;42.208;24.656;2023-07-31T13:12:36;5.47;;;4.10;;
65855;SDS011;52631;42.208;24.656;2023-07-31T13:15:03;4.53;;;3.78;;
65855;SDS011;52631;42.208;24.656;2023-07-31T13:17:29;5.05;;;4.05;;
65855;SDS011;52631;42.208;24.656;2023-07-31T13:19:54;8.45;;;4.05;;
65855;SDS011;52631;42.208;24.656;2023-07-31T13:22:20;6.30;;;4.85;;
65855;SDS011;52631;42.208;24.656;2023-07-31T13:24:45;6.20;;;4.88;;
65855;SDS011;52631;42.208;24.656;2023-07-31T13:27:11;9.52;;;5.10;;
65855;SDS011;52631;42.208;24.656;2023-07-31T13:29:36;6.60;;;5.07;;
65855;SDS011;52631;42.208;24.656;2023-07-31T13:32:02;7.38;;;4.82;;
65855;SDS011;52631;42.208;24.656;2023-07-31T13:34:27;6.95;;;4.70;;
65855;SDS011;52631;42.208;24.656;2023-07-31T13:36:54;5.25;;;4.30;;
65855;SDS011;52631;42.208;24.656;2023-07-31T13:39:20;8.45;;;4.47;;
65855;SDS011;52631;42.208;24.656;2023-07-31T13:41:46;7.50;;;4.90;;
65855;SDS011;52631;42.208;24.656;2023-07-31T13:44:11;5.95;;;4.63;;
65855;SDS011;52631;42.208;24.656;2023-07-31T13:46:37;5.85;;;4.13;;
65855;SDS011;52631;42.208;24.656;2023-07-31T13:49:02;6.07;;;4.45;;
65855;SDS011;52631;42.208;24.656;2023-07-31T13:51:27;5.28;;;4.35;;
65855;SDS011;52631;42.208;24.656;2023-07-31T13:53:53;5.95;;;4.00;;
65855;SDS011;52631;42.208;24.656;2023-07-31T13:56:19;5.40;;;4.18;;
65855;SDS011;52631;42.208;24.656;2023-07-31T13:58:44;5.72;;;4.90;;
65855;SDS011;52631;42.208;24.656;2023-07-31T14:01:10;8.23;;;5.05;;
65855;SDS011;52631;42.208;24.656;2023-07-31T14:03:35;6.10;;;5.50;;
65855;SDS011;52631;42.208;24.656;2023-07-31T14:06:01;6.60;;;5.68;;
65855;SDS011;52631;42.208;24.656;2023-07-31T14:08:26;10.48;;;5.68;;
65855;SDS011;52631;42.208;24.656;2023-07-31T14:10:52;6.22;;;5.28;;
65855;SDS011;52631;42.208;24.656;2023-07-31T14:13:17;8.05;;;6.03;;
65855;SDS011;52631;42.208;24.656;2023-07-31T14:15:42;6.93;;;5.68;;
65855;SDS011;52631;42.208;24.656;2023-07-31T14:18:08;7.15;;;5.72;;
65855;SDS011;52631;42.208;24.656;2023-07-31T14:20:34;7.05;;;5.80;;
65855;SDS011;52631;42.208;24.656;2023-07-31T14:23:00;8.88;;;5.68;;
65855;SDS011;52631;42.208;24.656;2023-07-31T14:25:26;6.45;;;5.53;;
65855;SDS011;52631;42.208;24.656;2023-07-31T14:27:51;6.80;;;5.72;;
65855;SDS011;52631;42.208;24.656;2023-07-31T14:30:16;8.40;;;5.63;;
65855;SDS011;52631;42.208;24.656;2023-07-31T14:32:43;7.22;;;5.63;;
65855;SDS011;52631;42.208;24.656;2023-07-31T14:35:09;6.72;;;5.50;;
65855;SDS011;52631;42.208;24.656;2023-07-31T14:37:41;6.57;;;5.15;;
65855;SDS011;52631;42.208;24.656;2023-07-31T14:40:08;6.97;;;5.18;;
65855;SDS011;52631;42.208;24.656;2023-07-31T14:42:34;6.45;;;4.78;;
65855;SDS011;52631;42.208;24.656;2023-07-31T14:45:00;7.13;;;4.97;;
65855;SDS011;52631;42.208;24.656;2023-07-31T14:47:25;5.95;;;4.93;;
65855;SDS011;52631;42.208;24.656;2023-07-31T14:49:51;7.03;;;4.80;;
65855;SDS011;52631;42.208;24.656;2023-07-31T14:52:16;7.18;;;5.10;;
65855;SDS011;52631;42.208;24.656;2023-07-31T14:54:42;8.43;;;5.00;;
65855;SDS011;52631;42.208;24.656;2023-07-31T14:57:08;42.25;;;7.60;;
65855;SDS011;52631;42.208;24.656;2023-07-31T14:59:33;8.50;;;5.22;;